Solrod, Denmark
Current Conditions -  °F | °C
As of 5:20 PM on Thursday 29 Jan 2015 (Local Time) from EKRK Reporting Station
Snow Showers Snow Showers  
Wind Chill: 24°   Ceiling: 600
Heat Index: 34°   Visibility: 2.5mi
Dew Point: 32°   Wind: 15mph
Humidity: 93%   Direction: 200°SSW
Pressure: 28.82"   Gusts: NA
Location:  55.54°N, 12.18°E
Report Text: EKRK 291620Z 20013KT 4000 -SHSN BKN006 OVC015 01/00 Q0976
Loading
Personal Weather Stations






























Interactive Weather Map New forecast layout! Learn more

10-Day Weather Forecast

Advertisements
Track Severe Weather on mobile